Time;durP1;ratioP1;P1;durP2;ratioP2;P2;SDS_P1;SDS_P2;PMS_P1;PMS_P2;Temp;Humidity;BMP_temperature;BMP_pressure;BME280_temperature;BME280_humidity;BME280_pressure;Samples;Min_cycle;Max_cycle;Signal;HPM_P1;HPM_P2
2021/06/09 00:01:28;;;;;;;6.85;6.10;;;17.50;64.40;;;17.25;48.08;95281.19;5039195;28;20541;-81
2021/06/09 00:03:55;;;;;;;7.32;6.57;;;17.40;64.40;;;17.22;48.13;95289.59;5009261;28;20287;-82
2021/06/09 00:06:22;;;;;;;6.32;5.68;;;17.40;64.40;;;17.18;47.99;95283.13;4960743;28;20663;-81
2021/06/09 00:08:48;;;;;;;6.78;6.15;;;17.40;64.60;;;17.18;48.50;95284.97;4814147;29;20271;-81
2021/06/09 00:13:09;;;;;;;6.90;6.13;;;17.40;64.70;;;17.11;47.83;95283.22;5146590;27;20557;-82
2021/06/09 00:15:37;;;;;;;7.53;6.30;;;17.30;64.50;;;17.07;48.56;95282.03;5108266;28;20315;-81
2021/06/09 00:18:04;;;;;;;6.95;6.25;;;17.30;64.80;;;17.02;48.17;95273.94;5109450;28;20232;-82
2021/06/09 00:20:31;;;;;;;7.65;6.88;;;17.30;64.70;;;17.06;48.31;95283.06;5070255;28;20259;-81
2021/06/09 00:22:57;;;;;;;7.40;6.70;;;17.20;64.80;;;17.01;48.38;95279.47;5041249;28;20299;-81
2021/06/09 00:25:24;;;;;;;7.20;6.50;;;17.20;64.80;;;17.01;48.93;95277.63;4974796;28;20217;-81
2021/06/09 00:27:54;;;;;;;7.07;6.38;;;17.20;65.00;;;17.01;48.75;95276.81;4840818;29;20669;-81
2021/06/09 00:30:31;;;;;;;8.40;6.97;;;17.20;65.30;;;16.99;49.12;95277.06;4745330;29;20225;-81
2021/06/09 00:34:36;;;;;;;7.82;6.85;;;17.20;65.50;;;16.98;48.91;95277.25;5134282;27;20658;-81
2021/06/09 00:37:03;;;;;;;6.97;6.38;;;17.10;65.80;;;16.95;48.84;95273.22;5088283;28;20265;-81
2021/06/09 00:39:29;;;;;;;7.68;6.50;;;17.10;65.00;;;16.98;48.80;95272.78;5089019;28;20233;-81
2021/06/09 00:41:56;;;;;;;8.10;7.30;;;17.10;65.10;;;17.00;48.69;95280.50;5055901;28;20212;-81
2021/06/09 00:44:22;;;;;;;7.22;6.47;;;17.10;65.10;;;17.00;49.02;95275.22;4989781;28;20247;-81
2021/06/09 00:46:49;;;;;;;6.95;6.25;;;17.10;65.10;;;16.97;48.94;95263.22;4894809;29;20218;-81
2021/06/09 00:49:16;;;;;;;7.57;6.85;;;17.10;65.10;;;16.99;48.85;95269.09;4842642;29;20551;-81
2021/06/09 00:51:43;;;;;;;7.45;6.65;;;17.10;65.30;;;16.95;49.34;95273.22;4661584;30;20229;-81
2021/06/09 00:54:20;;;;;;;7.28;6.57;;;17.10;65.30;;;16.96;49.20;95280.94;5135566;27;20395;-81
2021/06/09 00:56:47;;;;;;;7.47;6.78;;;17.10;65.30;;;16.95;49.29;95282.00;5089066;28;20201;-81
2021/06/09 00:59:14;;;;;;;7.25;6.55;;;17.10;65.30;;;16.93;49.45;95286.69;5094327;28;20271;-81
2021/06/09 01:01:41;;;;;;;8.57;7.20;;;17.10;65.50;;;16.90;49.43;95275.69;5096110;27;20213;-81
2021/06/09 01:04:08;;;;;;;7.30;6.55;;;17.10;65.60;;;16.89;49.40;95280.19;5085910;28;20632;-81
2021/06/09 01:06:35;;;;;;;7.88;7.13;;;17.10;65.60;;;16.88;49.98;95273.28;5014692;28;20204;-80
2021/06/09 01:09:01;;;;;;;8.45;6.55;;;17.10;65.70;;;16.87;49.98;95278.78;4936082;28;20260;-81
2021/06/09 01:11:29;;;;;;;7.53;6.85;;;17.10;65.70;;;16.88;49.47;95281.22;4855861;29;20220;-81
2021/06/09 01:15:32;;;;;;;6.90;6.30;;;17.00;65.50;;;16.86;49.43;95272.69;5150365;27;20626;-82
2021/06/09 01:17:59;;;;;;;7.30;6.60;;;17.00;65.50;;;16.87;49.95;95276.97;5108972;27;20192;-81
2021/06/09 01:20:27;;;;;;;7.45;6.38;;;17.00;65.60;;;16.89;49.37;95282.03;5092883;28;20269;-82
2021/06/09 01:22:54;;;;;;;8.38;6.70;;;17.00;65.60;;;16.87;49.83;95278.78;5084416;28;20197;-81
2021/06/09 01:25:22;;;;;;;7.18;6.57;;;17.00;65.60;;;16.90;49.94;95278.34;5039642;28;20201;-81
2021/06/09 01:27:50;;;;;;;7.13;6.43;;;17.00;65.70;;;16.89;49.53;95274.09;4949623;28;20651;-82
2021/06/09 01:30:19;;;;;;;7.50;6.32;;;17.00;65.70;;;16.91;49.70;95275.47;4880081;29;20243;-82
2021/06/09 01:32:49;;;;;;;8.18;6.60;;;17.00;65.80;;;16.93;49.85;95277.91;4678337;29;20224;-81
2021/06/09 01:36:12;;;;;;;7.30;6.65;;;17.00;66.80;;;16.91;49.99;95275.47;5149813;27;21154;-82
2021/06/09 01:38:39;;;;;;;6.75;6.05;;;17.00;65.70;;;16.93;49.75;95272.63;5128713;27;20207;-81
2021/06/09 01:41:06;;;;;;;6.80;6.10;;;17.00;65.70;;;16.92;49.46;95282.44;5104750;28;20205;-82
2021/06/09 01:43:34;;;;;;;7.15;6.45;;;17.10;65.80;;;16.94;49.30;95276.91;5049199;28;20230;-82
2021/06/09 01:46:03;;;;;;;7.00;6.32;;;17.10;65.90;;;16.91;49.47;95266.72;5028443;28;20710;-81
2021/06/09 01:48:30;;;;;;;6.32;5.78;;;17.00;65.80;;;16.93;49.60;95267.31;4944355;28;20704;-81
2021/06/09 01:50:57;;;;;;;7.35;6.00;;;17.00;65.60;;;16.91;49.40;95272.03;4858165;29;20658;-80
2021/06/09 01:53:23;;;;;;;7.30;6.60;;;17.00;65.70;;;16.90;49.58;95270.41;4790688;29;20365;-81
2021/06/09 01:56:03;;;;;;;6.65;5.70;;;17.00;65.70;;;16.87;49.99;95282.25;5149858;27;21131;-80
2021/06/09 01:58:29;;;;;;;6.97;6.30;;;17.00;65.90;;;16.85;49.56;95270.28;5110111;27;20590;-81
2021/06/09 02:00:57;;;;;;;7.53;6.80;;;17.00;65.90;;;16.84;49.90;95271.28;5103113;28;20262;-82
2021/06/09 02:03:23;;;;;;;7.15;6.45;;;17.00;65.90;;;16.80;49.91;95269.06;5058440;28;20246;-82
2021/06/09 02:05:50;;;;;;;7.20;6.15;;;16.90;65.80;;;16.80;49.61;95270.94;5033654;28;20255;-80
2021/06/09 02:08:16;;;;;;;7.80;6.18;;;16.90;65.90;;;16.79;49.73;95271.97;4912852;28;20235;-81
2021/06/09 02:10:45;;;;;;;6.35;5.78;;;16.90;65.90;;;16.78;49.97;95275.63;4928992;28;20205;-82
2021/06/09 02:13:15;;;;;;;6.53;5.82;;;16.90;66.00;;;16.76;50.13;95273.22;4638270;29;20254;-81
2021/06/09 02:15:56;;;;;;;6.88;6.28;;;16.90;66.10;;;16.72;49.77;95277.34;5149777;27;20302;-81
2021/06/09 02:18:27;;;;;;;7.18;5.95;;;16.90;66.00;;;16.67;49.98;95281.69;5128373;27;20203;-81
2021/06/09 02:20:57;;;;;;;6.47;5.88;;;16.80;66.00;;;16.58;50.00;95274.00;5069568;28;20213;-82
2021/06/09 02:23:29;;;;;;;6.85;6.25;;;16.80;66.00;;;16.52;50.03;95285.50;5021366;28;20674;-81
2021/06/09 02:25:58;;;;;;;6.63;6.03;;;16.80;66.20;;;16.43;50.26;95276.19;4977916;28;20264;-81
2021/06/09 02:28:30;;;;;;;6.68;6.07;;;16.80;66.20;;;16.39;50.36;95285.63;4927390;28;20587;-81
2021/06/09 02:30:57;;;;;;;6.53;5.85;;;16.70;66.10;;;16.30;50.37;95285.09;4852162;29;20217;-81
2021/06/09 02:33:35;;;;;;;10.75;6.57;;;16.60;66.00;;;16.29;50.67;95278.97;5130771;27;20665;-82
2021/06/09 02:36:05;;;;;;;8.00;5.93;;;16.60;66.20;;;16.25;50.57;95277.00;5089316;28;20229;-81
2021/06/09 02:38:36;;;;;;;6.68;6.00;;;16.50;66.30;;;16.25;50.85;95290.25;5052866;28;20280;-81
2021/06/09 02:41:03;;;;;;;6.60;6.00;;;16.50;66.60;;;16.22;50.66;95282.72;5075355;28;20659;-81
2021/06/09 02:43:33;;;;;;;7.25;6.55;;;16.50;66.30;;;16.17;50.88;95276.25;4972828;28;20285;-80
2021/06/09 02:46:26;;;;;;;6.72;6.00;;;16.40;66.30;;;16.13;50.93;95283.00;4932470;29;20212;-81
2021/06/09 02:49:24;;;;;;;7.13;6.43;;;16.40;66.60;;;16.07;50.68;95273.28;4875682;29;20238;-81
2021/06/09 02:54:58;;;;;;;7.38;6.40;;;16.30;66.50;;;15.99;51.18;95277.03;5132514;27;20554;-82
2021/06/09 02:57:52;;;;;;;7.10;6.43;;;16.30;66.90;;;15.93;51.17;95277.06;5103637;28;20205;-82
2021/06/09 03:00:30;;;;;;;7.45;6.65;;;16.20;66.70;;;15.92;51.54;95272.84;5017342;28;20285;-81
2021/06/09 03:03:04;;;;;;;7.38;6.68;;;16.30;67.10;;;15.88;51.48;95271.63;5001501;28;20259;-81
2021/06/09 03:06:02;;;;;;;7.30;6.60;;;16.30;66.90;;;15.85;51.74;95267.56;4979900;28;20197;-81
2021/06/09 03:08:42;;;;;;;7.45;6.75;;;16.20;67.00;;;15.88;51.70;95276.91;4887151;29;20263;-81
2021/06/09 03:11:29;;;;;;;7.22;6.53;;;16.20;67.20;;;15.88;52.28;95275.09;4762168;29;20365;-80
2021/06/09 03:16:10;;;;;;;7.32;6.50;;;16.10;67.50;;;15.87;52.02;95277.94;5150595;27;20605;-80
2021/06/09 03:18:43;;;;;;;7.90;6.88;;;16.10;67.60;;;15.87;52.30;95275.28;5099767;28;20646;-81
2021/06/09 03:21:29;;;;;;;7.25;6.15;;;16.20;67.80;;;15.90;52.22;95272.22;5077661;28;20193;-80
2021/06/09 03:24:15;;;;;;;7.20;6.50;;;16.10;68.10;;;15.90;52.70;95269.59;5068687;28;20329;-81
2021/06/09 03:26:56;;;;;;;7.70;6.72;;;16.10;67.90;;;15.89;52.65;95278.53;4976986;28;20564;-82
2021/06/09 03:29:39;;;;;;;6.45;5.85;;;16.10;68.10;;;15.90;52.99;95280.97;4885921;29;20643;-81
2021/06/09 03:32:32;;;;;;;6.85;6.25;;;16.10;68.20;;;15.89;52.40;95274.03;4832572;29;21972;-81
2021/06/09 03:37:43;;;;;;;8.13;6.60;;;16.10;68.00;;;15.89;52.35;95271.41;5147956;27;20554;-81
2021/06/09 03:45:27;;;;;;;6.53;5.82;;;16.10;68.00;;;15.77;51.94;95273.94;5100058;28;20365;-81
2021/06/09 03:47:56;;;;;;;6.55;5.88;;;16.10;68.10;;;15.81;52.16;95272.47;5068449;28;20230;-81
2021/06/09 03:50:25;;;;;;;6.28;5.60;;;16.00;68.00;;;15.81;52.42;95275.09;5008916;28;20292;-80
2021/06/09 03:52:53;;;;;;;7.50;6.10;;;16.00;68.10;;;15.82;52.33;95275.94;4984019;28;20715;-82
2021/06/09 03:55:25;;;;;;;6.55;5.95;;;16.00;68.20;;;15.88;52.80;95271.63;4961620;28;20202;-82
2021/06/09 03:57:54;;;;;;;7.95;7.15;;;16.00;68.70;;;15.90;53.15;95280.97;4901089;29;20233;-82
2021/06/09 04:00:25;;;;;;;8.88;7.97;;;16.10;68.80;;;15.96;53.81;95282.75;4770100;29;20234;-81
2021/06/09 04:03:03;;;;;;;9.30;8.20;;;16.10;69.50;;;16.01;54.10;95274.16;5146069;27;20314;-82
2021/06/09 04:05:31;;;;;;;11.48;8.80;;;16.10;69.50;;;16.12;54.65;95275.28;5086251;28;20202;-82
2021/06/09 04:07:59;;;;;;;9.20;8.32;;;16.10;69.70;;;16.21;54.43;95276.63;5071355;28;20219;-82
2021/06/09 04:10:27;;;;;;;8.68;7.88;;;16.20;69.90;;;16.26;53.92;95274.16;5075862;28;20213;-82
2021/06/09 04:12:54;;;;;;;7.80;7.10;;;16.20;69.90;;;16.39;53.68;95282.97;5013150;28;20200;-81
2021/06/09 04:15:23;;;;;;;8.77;7.32;;;16.30;69.80;;;16.46;53.93;95281.88;4934180;28;20212;-82
2021/06/09 04:17:51;;;;;;;9.68;8.77;;;16.40;70.20;;;16.51;54.43;95278.56;4845306;29;20220;-82
2021/06/09 04:20:25;;;;;;;13.20;11.68;;;16.50;70.30;;;16.62;56.42;95292.94;4689257;30;20224;-82
2021/06/09 04:24:44;;;;;;;14.38;12.88;;;16.60;71.30;;;16.75;58.21;95281.38;5132798;27;20581;-82
2021/06/09 04:27:25;;;;;;;14.05;12.00;;;16.70;72.00;;;16.90;57.68;95287.09;5108416;28;20188;-82
2021/06/09 04:29:55;;;;;;;14.85;12.55;;;16.80;72.20;;;17.00;57.57;95278.66;5082817;27;20224;-81
2021/06/09 04:33:02;;;;;;;13.80;12.20;;;16.90;72.40;;;17.14;57.27;95274.00;5013411;28;20258;-82
2021/06/09 04:35:40;;;;;;;12.57;11.38;;;17.00;72.00;;;17.27;56.61;95278.31;4994669;28;20235;-82
2021/06/09 04:38:16;;;;;;;13.18;11.95;;;17.10;72.10;;;17.39;56.37;95273.88;4872122;29;20600;-81
2021/06/09 04:40:44;;;;;;;11.68;10.38;;;17.20;72.10;;;17.51;55.90;95270.44;4690160;30;20284;-82
2021/06/09 04:45:11;;;;;;;11.63;10.35;;;17.30;71.80;;;17.72;55.37;95269.09;5150754;27;20633;-84
2021/06/09 04:47:38;;;;;;;11.38;10.35;;;17.50;71.70;;;17.86;55.31;95275.03;5109648;27;20257;-83
2021/06/09 04:50:07;;;;;;;10.43;9.32;;;17.60;71.60;;;18.00;54.96;95278.28;5107305;28;20225;-83
2021/06/09 04:52:34;;;;;;;11.38;9.70;;;17.70;71.60;;;18.12;54.76;95280.97;5065813;28;20222;-83
2021/06/09 04:55:01;;;;;;;11.18;10.05;;;17.80;71.50;;;18.21;55.19;95275.09;5009790;28;20359;-83
2021/06/09 04:57:28;;;;;;;11.07;9.98;;;17.90;71.40;;;18.30;55.30;95267.56;4963353;28;20222;-84
2021/06/09 04:59:54;;;;;;;12.93;11.52;;;18.00;71.50;;;18.40;55.08;95272.31;4861407;29;20261;-83
2021/06/09 05:02:21;;;;;;;12.27;10.85;;;18.10;71.60;;;18.48;55.24;95277.28;4743103;29;20249;-83
2021/06/09 05:04:59;;;;;;;13.35;11.95;;;18.20;72.20;;;18.56;54.83;95271.56;5125285;27;20862;-83
2021/06/09 05:07:26;;;;;;;13.38;12.07;;;18.30;71.30;;;18.66;55.05;95278.16;5062494;28;20199;-82
2021/06/09 05:09:54;;;;;;;13.52;11.88;;;18.40;71.30;;;18.68;54.66;95263.59;5062986;28;20309;-83
2021/06/09 05:12:36;;;;;;;14.23;11.95;;;18.50;71.30;;;18.79;54.62;95277.09;5087374;28;20679;-84
2021/06/09 05:15:05;;;;;;;13.15;11.82;;;18.60;71.30;;;18.81;54.96;95270.50;5004427;28;20333;-83
2021/06/09 05:17:48;;;;;;;12.75;11.55;;;18.60;71.00;;;18.92;54.88;95268.06;4867086;29;20213;-84
2021/06/09 05:20:30;;;;;;;14.35;12.85;;;18.80;71.10;;;19.00;54.94;95271.16;4733425;30;20309;-82
2021/06/09 05:23:41;;;;;;;14.05;12.65;;;18.80;71.00;;;19.10;54.43;95280.41;5134875;27;20659;-84
2021/06/09 05:26:11;;;;;;;12.02;10.93;;;18.90;71.10;;;19.17;54.76;95283.72;5102028;28;20622;-83
2021/06/09 05:28:46;;;;;;;12.00;10.85;;;19.00;71.00;;;19.25;54.19;95283.34;5089363;28;20616;-84
2021/06/09 05:31:15;;;;;;;12.38;11.27;;;19.00;70.90;;;19.33;54.32;95280.31;5043525;28;20198;-83
2021/06/09 05:33:43;;;;;;;12.18;10.88;;;19.10;70.90;;;19.41;54.46;95275.63;5029389;28;20237;-83
2021/06/09 05:36:12;;;;;;;12.75;11.43;;;19.20;70.90;;;19.49;53.76;95280.59;5030069;28;20235;-83
2021/06/09 05:38:39;;;;;;;13.20;10.88;;;19.20;70.90;;;19.57;54.09;95279.41;5020051;28;20479;-84
2021/06/09 05:41:28;;;;;;;15.13;11.52;;;19.30;70.90;;;19.62;53.97;95280.28;5150716;27;21135;-83
2021/06/09 05:43:55;;;;;;;14.15;11.52;;;19.40;70.70;;;19.70;53.78;95275.63;5095372;27;20564;-84
2021/06/09 05:46:21;;;;;;;13.25;11.90;;;19.50;70.60;;;19.75;53.61;95281.03;5126548;27;20232;-83
2021/06/09 05:48:49;;;;;;;11.90;10.70;;;19.50;70.60;;;19.83;53.54;95283.28;5101387;27;20229;-83
2021/06/09 05:51:17;;;;;;;12.85;11.55;;;19.60;70.50;;;19.92;53.65;95283.72;5068444;28;20295;-84
2021/06/09 05:53:45;;;;;;;11.95;10.85;;;19.70;70.60;;;19.97;53.50;95281.97;4992395;28;20232;-84
2021/06/09 05:56:12;;;;;;;12.40;11.13;;;19.80;70.60;;;20.04;53.77;95287.13;4933024;28;20211;-83
2021/06/09 05:58:40;;;;;;;11.02;10.02;;;19.80;70.40;;;20.12;53.58;95284.06;4780840;29;20263;-84
2021/06/09 06:03:25;;;;;;;11.85;10.75;;;19.90;70.60;;;20.27;52.98;95285.34;5144794;27;20327;-83
2021/06/09 06:06:01;;;;;;;10.73;9.45;;;20.00;69.90;;;20.38;52.79;95289.75;5106455;28;20638;-83
2021/06/09 06:08:28;;;;;;;10.73;9.63;;;20.10;69.80;;;20.49;52.43;95288.06;5101799;28;20275;-83
2021/06/09 06:11:01;;;;;;;10.70;9.60;;;20.20;69.90;;;20.57;52.02;95292.97;5056741;28;20227;-83
2021/06/09 06:13:28;;;;;;;10.25;9.25;;;20.20;69.70;;;20.65;51.87;95299.72;4961535;28;20235;-84
2021/06/09 06:15:57;;;;;;;10.32;9.43;;;20.30;69.30;;;20.74;51.63;95298.28;4948212;28;20213;-83
2021/06/09 06:18:41;;;;;;;10.45;9.32;;;20.30;69.30;;;20.83;51.54;95305.88;4845762;29;20332;-83
2021/06/09 06:21:13;;;;;;;10.30;9.27;;;20.40;68.80;;;20.87;50.61;95305.13;4653511;30;20207;-83
2021/06/09 06:23:52;;;;;;;10.55;9.55;;;20.50;68.50;;;20.89;50.39;95299.53;5136538;27;20401;-83
2021/06/09 06:26:20;;;;;;;9.77;8.88;;;20.60;68.40;;;20.98;51.02;95299.91;5087245;28;20229;-83
2021/06/09 06:28:52;;;;;;;10.90;8.88;;;20.70;68.60;;;21.11;50.98;95302.22;5092379;28;20669;-83
2021/06/09 06:31:26;;;;;;;9.73;8.90;;;20.70;68.60;;;21.21;50.49;95296.19;5028790;28;20198;-82
2021/06/09 06:33:56;;;;;;;9.82;8.90;;;20.80;68.30;;;21.28;50.65;95296.81;4962839;28;20228;-82
2021/06/09 06:36:25;;;;;;;9.65;8.68;;;20.90;68.40;;;21.38;50.86;95301.44;4891094;29;20283;-83
2021/06/09 06:38:52;;;;;;;10.10;9.10;;;21.00;68.60;;;21.44;50.06;95293.22;4739810;29;20237;-84
2021/06/09 06:41:21;;;;;;;10.20;9.30;;;21.00;68.10;;;21.51;50.31;95290.38;4600841;30;20217;-84
2021/06/09 06:44:00;;;;;;;11.77;8.25;;;21.10;68.20;;;21.64;49.72;95294.56;5115267;27;20312;-83
2021/06/09 06:46:28;;;;;;;9.20;8.40;;;21.20;68.10;;;21.74;49.79;95294.63;5097046;28;20292;-83
2021/06/09 06:48:56;;;;;;;11.25;9.18;;;21.30;68.00;;;21.81;49.05;95297.06;5083646;28;20636;-83
2021/06/09 06:51:26;;;;;;;8.63;7.85;;;21.40;67.50;;;21.92;49.50;95295.31;5026843;28;20212;-83
2021/06/09 06:53:55;;;;;;;9.27;8.48;;;21.50;67.60;;;22.03;49.53;95298.88;5014851;28;20298;-83
2021/06/09 06:56:25;;;;;;;8.50;7.70;;;21.50;67.70;;;22.13;49.17;95301.63;4951387;28;20205;-84
2021/06/09 06:58:52;;;;;;;10.00;8.90;;;21.60;67.70;;;22.24;49.05;95302.53;4732829;29;20250;-83
2021/06/09 07:01:43;;;;;;;9.10;8.13;;;21.70;67.80;;;22.34;49.16;95299.91;5132324;27;20566;-84
2021/06/09 07:04:15;;;;;;;8.88;8.07;;;21.80;67.60;;;22.46;48.62;95306.97;5106632;28;20222;-84
2021/06/09 07:06:44;;;;;;;9.60;8.50;;;21.90;67.40;;;22.52;49.17;95304.09;5057342;28;20211;-83
2021/06/09 07:09:21;;;;;;;8.50;7.70;;;22.00;67.50;;;22.65;48.92;95294.00;5040408;28;20285;-84
2021/06/09 07:11:52;;;;;;;9.25;8.35;;;22.10;67.60;;;22.78;49.04;95295.41;4986676;28;20213;-84
2021/06/09 07:14:26;;;;;;;9.15;8.35;;;22.20;67.30;;;22.92;48.27;95301.09;4937605;28;20771;-84
2021/06/09 07:16:55;;;;;;;8.75;7.65;;;22.30;67.10;;;23.02;48.55;95304.59;4851426;29;20220;-85
2021/06/09 07:19:22;;;;;;;8.52;7.72;;;22.40;66.90;;;23.08;47.81;95289.38;4685450;29;20822;-83
2021/06/09 07:22:01;;;;;;;8.45;7.50;;;22.50;66.80;;;23.22;48.07;95300.44;5125371;27;20311;-84
2021/06/09 07:24:27;;;;;;;9.05;8.15;;;22.60;66.80;;;23.33;47.39;95299.38;5064584;28;20607;-84
2021/06/09 07:26:56;;;;;;;8.77;7.90;;;22.70;66.30;;;23.45;47.47;95293.81;5052283;28;20226;-84
2021/06/09 07:29:23;;;;;;;11.27;7.72;;;22.80;66.70;;;23.56;46.96;95297.31;4998790;28;20229;-85
2021/06/09 07:31:51;;;;;;;9.13;7.53;;;22.90;65.80;;;23.67;47.22;95300.81;5006135;28;20216;-84
2021/06/09 07:34:19;;;;;;;6.53;5.85;;;23.00;65.80;;;23.80;46.59;95302.16;4935939;28;20282;-84
2021/06/09 07:36:59;;;;;;;6.15;5.57;;;23.10;66.00;;;23.94;46.31;95303.28;4816223;29;20692;-85
2021/06/09 07:39:34;;;;;;;6.50;5.70;;;23.20;65.10;;;24.10;46.26;95297.94;4695061;30;20233;-84
2021/06/09 07:42:16;;;;;;;6.47;5.18;;;23.30;65.30;;;24.30;45.61;95303.28;5150689;27;20382;-83
2021/06/09 07:44:50;;;;;;;6.00;5.40;;;23.50;65.40;;;24.49;45.71;95301.94;5062581;28;20438;-82
2021/06/09 07:47:19;;;;;;;5.65;5.15;;;23.60;64.70;;;24.61;45.11;95302.44;5055454;28;20282;-83
2021/06/09 07:49:49;;;;;;;5.32;4.90;;;23.70;64.30;;;24.74;44.52;95295.72;5041552;28;20258;-83
2021/06/09 07:52:19;;;;;;;5.68;5.13;;;23.90;64.00;;;24.85;44.57;95299.19;4982297;28;20277;-83
2021/06/09 07:54:47;;;;;;;6.53;5.82;;;24.00;64.50;;;24.94;44.35;95305.63;4942598;28;20229;-84
2021/06/09 07:57:14;;;;;;;6.75;5.72;;;24.10;64.30;;;25.04;44.37;95308.25;4905232;28;20224;-83
2021/06/09 07:59:43;;;;;;;6.22;5.72;;;24.20;63.90;;;25.10;44.18;95303.66;4711785;29;20253;-83
2021/06/09 08:02:21;;;;;;;6.25;5.75;;;24.30;64.50;;;25.14;43.75;95306.63;5148818;27;20314;-84
2021/06/09 08:04:49;;;;;;;6.00;5.40;;;24.40;63.20;;;25.18;43.66;95296.91;5087125;28;20323;-84
2021/06/09 08:07:16;;;;;;;6.28;5.78;;;24.50;63.60;;;25.28;43.43;95306.81;5081784;28;20257;-82
2021/06/09 08:09:43;;;;;;;6.70;6.03;;;24.50;63.10;;;25.39;43.46;95305.72;5056288;28;20279;-83
2021/06/09 08:12:10;;;;;;;5.90;5.40;;;24.60;63.10;;;25.56;43.15;95308.03;5017299;28;20239;-83
2021/06/09 08:14:38;;;;;;;6.18;5.68;;;24.70;63.10;;;25.73;42.83;95305.78;4965255;28;20228;-83
2021/06/09 08:17:08;;;;;;;5.68;5.18;;;24.80;63.20;;;26.01;42.64;95308.84;4925678;28;20216;-83
2021/06/09 08:19:34;;;;;;;6.45;5.57;;;24.90;62.40;;;26.27;42.24;95305.16;4757721;29;20532;-83
2021/06/09 08:23:28;;;;;;;6.55;5.35;;;25.10;62.90;;;26.63;42.08;95300.25;5143986;27;20966;-83
2021/06/09 08:25:54;;;;;;;5.57;5.07;;;25.50;62.70;;;26.87;41.26;95304.06;5069629;28;20212;-85
2021/06/09 08:28:21;;;;;;;5.00;4.55;;;25.70;62.10;;;27.02;41.24;95298.50;5065085;28;20239;-85
2021/06/09 08:30:47;;;;;;;6.60;5.15;;;25.80;61.80;;;27.19;40.59;95302.63;5049281;28;20210;-85
2021/06/09 08:33:14;;;;;;;5.82;5.30;;;26.10;61.30;;;27.33;40.26;95308.91;5042307;28;20225;-86
2021/06/09 08:35:41;;;;;;;5.85;5.22;;;26.20;60.70;;;27.36;40.04;95297.56;5020968;28;20598;-86
2021/06/09 08:38:08;;;;;;;8.80;5.88;;;26.40;60.70;;;27.44;39.66;95302.34;4915971;28;20285;-87
2021/06/09 08:40:35;;;;;;;5.53;5.03;;;26.50;60.20;;;27.53;39.49;95301.69;4705726;29;20687;-86
2021/06/09 08:43:13;;;;;;;5.88;5.38;;;26.60;60.20;;;27.64;39.64;95308.53;5142982;27;20320;-84
2021/06/09 08:45:40;;;;;;;6.38;5.88;;;26.70;60.00;;;27.71;38.97;95308.97;5106791;28;20208;-86
2021/06/09 08:48:08;;;;;;;6.22;5.63;;;26.80;59.40;;;27.80;39.29;95303.72;5095097;28;20263;-86
2021/06/09 08:50:36;;;;;;;6.25;5.72;;;26.90;59.40;;;27.93;38.33;95299.50;5088273;28;20207;-86
2021/06/09 08:53:06;;;;;;;5.78;5.28;;;27.00;58.70;;;28.07;38.17;95304.97;5017695;28;20201;-85
2021/06/09 08:55:35;;;;;;;5.82;5.25;;;27.10;58.60;;;28.19;38.02;95302.63;4910727;28;20223;-85
2021/06/09 08:58:11;;;;;;;5.38;4.97;;;27.20;58.50;;;28.38;37.90;95299.06;4804478;29;20212;-86
2021/06/09 09:00:39;;;;;;;5.57;5.10;;;27.30;58.20;;;28.52;37.81;95299.91;4695609;30;20222;-87
2021/06/09 09:03:17;;;;;;;5.72;5.22;;;27.40;58.10;;;28.71;37.66;95307.97;5131628;27;20323;-85
2021/06/09 09:05:44;;;;;;;5.55;5.05;;;27.60;58.30;;;28.89;37.20;95300.88;5086405;27;20217;-85
2021/06/09 09:08:11;;;;;;;5.10;4.70;;;27.80;58.20;;;29.04;37.49;95307.88;5083009;28;20429;-86
2021/06/09 09:10:39;;;;;;;5.65;5.15;;;27.90;57.60;;;29.17;36.82;95300.06;5025064;28;20610;-86
2021/06/09 09:13:05;;;;;;;5.47;4.97;;;28.00;57.50;;;29.29;37.22;95299.56;4961210;28;20253;-86
2021/06/09 09:15:33;;;;;;;5.47;5.00;;;28.20;57.40;;;29.36;36.94;95302.69;4916754;28;20222;-85
2021/06/09 09:18:05;;;;;;;5.30;4.90;;;28.30;56.80;;;29.35;36.67;95307.28;4935931;28;20209;-85
2021/06/09 09:23:17;;;;;;;5.35;4.88;;;28.40;56.30;;;29.23;36.30;95304.28;5147599;27;20405;-86
2021/06/09 09:25:45;;;;;;;5.13;4.68;;;28.60;55.90;;;29.18;36.80;95309.78;5071789;28;20235;-86
2021/06/09 09:28:30;;;;;;;4.95;4.55;;;28.60;55.90;;;29.15;36.99;95304.97;5072973;28;20245;-84
2021/06/09 09:31:19;;;;;;;5.28;4.82;;;28.60;56.10;;;29.15;37.42;95307.66;5030418;28;20210;-85
2021/06/09 09:33:46;;;;;;;8.00;5.03;;;28.50;57.20;;;29.20;36.87;95310.28;4995258;28;20297;-84
2021/06/09 09:36:28;;;;;;;5.80;5.30;;;28.60;56.90;;;29.29;37.11;95303.06;4972895;28;20271;-85
2021/06/09 09:38:58;;;;;;;5.70;5.20;;;28.60;56.70;;;29.41;36.88;95307.16;4874382;29;20287;-85
2021/06/09 09:42:35;;;;;;;5.75;5.13;;;28.60;56.60;;;29.49;36.67;95307.28;5144414;27;20652;-85
2021/06/09 09:45:30;;;;;;;6.10;5.28;;;28.70;56.00;;;29.50;36.21;95300.78;5067713;28;20233;-87
2021/06/09 09:48:18;;;;;;;5.50;5.00;;;28.80;55.90;;;29.50;36.00;95303.47;5046403;28;20761;-85
2021/06/09 09:50:50;;;;;;;5.40;5.00;;;28.90;56.00;;;29.47;36.61;95301.38;5081781;28;20302;-85
2021/06/09 09:53:26;;;;;;;5.38;4.88;;;28.90;55.30;;;29.45;36.78;95308.19;5047107;28;20694;-85
2021/06/09 09:56:17;;;;;;;5.25;4.75;;;28.90;55.80;;;29.39;36.34;95302.88;4996047;28;20206;-85
2021/06/09 09:59:11;;;;;;;5.55;5.05;;;28.90;55.70;;;29.43;36.49;95305.78;4891247;29;20709;-85
2021/06/09 10:03:19;;;;;;;7.53;4.60;;;28.90;55.60;;;29.62;35.72;95300.22;5147304;27;20657;-85
2021/06/09 10:05:47;;;;;;;5.70;5.20;;;28.90;55.30;;;29.78;35.61;95311.50;5069182;28;20238;-85
2021/06/09 10:08:14;;;;;;;5.80;5.30;;;28.90;55.10;;;29.93;35.62;95301.47;5075457;28;20755;-86
2021/06/09 10:10:40;;;;;;;5.80;5.05;;;29.00;54.90;;;30.10;34.74;95293.50;5034890;28;20216;-86
2021/06/09 10:13:11;;;;;;;5.88;5.38;;;29.10;54.80;;;30.25;34.38;95288.78;5032141;28;20235;-86
2021/06/09 10:15:47;;;;;;;5.65;5.07;;;29.20;54.30;;;30.39;34.60;95286.81;5012046;28;20240;-86
2021/06/09 10:18:20;;;;;;;4.88;4.47;;;29.30;54.40;;;30.57;34.19;95286.97;4934665;28;20306;-85
2021/06/09 10:21:12;;;;;;;5.25;4.85;;;29.40;54.20;;;30.80;34.22;95282.28;5151067;27;21070;-86
2021/06/09 10:23:39;;;;;;;5.43;4.93;;;29.60;55.20;;;30.95;34.12;95276.44;5090260;28;20287;-86
2021/06/09 10:26:13;;;;;;;5.50;5.07;;;29.70;53.70;;;31.14;33.84;95275.41;5071453;28;20555;-85
2021/06/09 10:29:01;;;;;;;5.10;4.70;;;29.90;53.60;;;31.27;33.93;95281.81;5041126;28;20240;-85
2021/06/09 10:31:36;;;;;;;5.50;4.90;;;30.10;54.00;;;31.29;32.65;95285.00;5048800;28;20285;-86
2021/06/09 10:34:05;;;;;;;4.82;4.43;;;30.20;51.40;;;31.14;33.34;95287.03;4950023;28;20236;-86
2021/06/09 10:36:39;;;;;;;5.00;4.60;;;30.30;51.90;;;30.94;32.64;95291.06;4818804;29;20287;-86
2021/06/09 10:42:01;;;;;;;5.60;4.80;;;30.40;51.50;;;30.41;33.66;95306.25;5150843;27;20636;-85
2021/06/09 10:44:33;;;;;;;6.93;4.82;;;30.20;52.50;;;29.90;34.50;95313.69;5073734;28;20230;-85
2021/06/09 10:47:02;;;;;;;5.93;5.25;;;30.00;53.40;;;28.89;37.69;95322.50;5068570;28;20228;-85
2021/06/09 10:49:35;;;;;;;10.50;5.97;;;29.70;55.00;;;27.21;42.08;95316.59;5064591;28;20233;-84
2021/06/09 10:52:05;;;;;;;6.00;5.43;;;29.00;58.50;;;25.66;45.06;95323.28;4988800;28;20298;-84
2021/06/09 10:54:32;;;;;;;6.35;5.53;;;28.20;60.10;;;24.52;46.60;95337.03;4934379;28;20248;-82
2021/06/09 10:56:59;;;;;;;6.18;5.55;;;27.20;60.70;;;23.61;48.19;95323.31;4818703;29;20264;-82
2021/06/09 11:02:25;;;;;;;6.90;6.30;;;25.40;62.70;;;22.06;51.36;95333.91;5148894;27;20636;-84
2021/06/09 11:04:55;;;;;;;6.80;6.20;;;24.40;63.90;;;21.52;51.95;95328.53;5119220;27;20603;-82
2021/06/09 11:07:37;;;;;;;7.47;6.72;;;23.60;64.90;;;21.06;53.70;95326.94;5057341;28;20209;-83
2021/06/09 11:10:30;;;;;;;9.93;7.25;;;23.00;65.90;;;20.59;55.30;95325.53;4996590;28;20218;-83
2021/06/09 11:12:58;;;;;;;8.20;7.32;;;22.40;66.50;;;20.26;56.48;95321.00;4986458;28;20216;-82
2021/06/09 11:15:32;;;;;;;7.43;6.72;;;21.80;67.60;;;20.10;56.88;95311.97;4897279;29;20302;-82